Time;durP1;ratioP1;P1;durP2;ratioP2;P2;SDS_P1;SDS_P2;PMS_P1;PMS_P2;Temp;Humidity;BMP_temperature;BMP_pressure;BME280_temperature;BME280_humidity;BME280_pressure;Samples;Min_cycle;Max_cycle;Signal;HPM_P1;HPM_P2
2021/12/25 00:00:52;;;;;;;6.40;2.65;;;;;;;;;;5101291;27;20039;-86
2021/12/25 00:03:18;;;;;;;7.38;3.17;;;;;;;;;;5101491;28;20054;-85
2021/12/25 00:05:45;;;;;;;6.07;2.72;;;;;;;;;;5097717;27;20073;-86
2021/12/25 00:08:11;;;;;;;6.53;3.10;;;;;;;;;;5099164;27;20047;-86
2021/12/25 00:10:37;;;;;;;7.15;3.03;;;;;;;;;;5116537;27;20135;-86
2021/12/25 00:13:03;;;;;;;5.18;2.75;;;;;;;;;;5099831;27;20129;-86
2021/12/25 00:15:29;;;;;;;6.60;2.47;;;;;;;;;;5099928;27;20409;-86
2021/12/25 00:17:55;;;;;;;4.18;2.80;;;;;;;;;;5116579;27;20118;-86
2021/12/25 00:20:21;;;;;;;5.35;2.80;;;;;;;;;;5101122;27;20035;-86
2021/12/25 00:22:47;;;;;;;3.45;2.78;;;;;;;;;;5118076;27;20035;-86
2021/12/25 00:25:14;;;;;;;6.22;2.75;;;;;;;;;;5118258;27;20468;-85
2021/12/25 00:27:49;;;;;;;4.30;2.28;;;;;;;;;;5101414;27;20039;-85
2021/12/25 00:30:25;;;;;;;5.07;2.50;;;;;;;;;;5101489;27;20054;-86
2021/12/25 00:33:34;;;;;;;3.83;2.50;;;;;;;;;;5101199;27;20043;-86
2021/12/25 00:35:43;;;;;;;4.90;2.38;;;;;;;;;;5114849;27;20430;-86
2021/12/25 00:38:09;;;;;;;3.10;1.90;;;;;;;;;;5100695;27;20055;-86
2021/12/25 00:40:35;;;;;;;3.60;2.50;;;;;;;;;;5117782;27;20035;-86
2021/12/25 00:43:01;;;;;;;3.83;1.90;;;;;;;;;;5100432;27;20122;-86
2021/12/25 00:45:27;;;;;;;4.65;1.98;;;;;;;;;;5117813;27;20478;-86
2021/12/25 00:47:53;;;;;;;2.90;1.70;;;;;;;;;;5100688;27;20046;-86
2021/12/25 00:50:18;;;;;;;6.22;1.98;;;;;;;;;;5118237;27;20039;-87
2021/12/25 00:52:45;;;;;;;4.05;1.92;;;;;;;;;;5100715;27;20501;-86
2021/12/25 00:55:11;;;;;;;6.78;2.00;;;;;;;;;;5117391;27;20042;-86
2021/12/25 00:57:37;;;;;;;3.38;1.70;;;;;;;;;;5117970;27;20065;-86
2021/12/25 01:00:09;;;;;;;3.70;1.70;;;;;;;;;;5118235;27;20088;-85
2021/12/25 01:02:35;;;;;;;5.60;1.80;;;;;;;;;;5100614;27;20509;-86
2021/12/25 01:05:01;;;;;;;3.90;2.00;;;;;;;;;;5099742;27;20043;-86
2021/12/25 01:07:27;;;;;;;4.88;1.83;;;;;;;;;;5117658;27;20061;-85
2021/12/25 01:09:53;;;;;;;5.43;1.90;;;;;;;;;;5117865;27;20039;-86
2021/12/25 01:12:19;;;;;;;3.42;1.77;;;;;;;;;;5108356;28;20035;-86
2021/12/25 01:14:51;;;;;;;2.58;1.50;;;;;;;;;;5107599;27;20039;-85
2021/12/25 01:17:47;;;;;;;7.72;1.85;;;;;;;;;;5117604;27;20122;-85
2021/12/25 01:38:38;;;;;;;;;;;;;;;;;;5118182;27;20070;-85
2021/12/25 01:49:17;;;;;;;3.55;1.60;;;;;;;;;;5116803;27;20047;-85
2021/12/25 01:51:43;;;;;;;4.18;1.70;;;;;;;;;;5134128;27;20067;-84
2021/12/25 01:54:09;;;;;;;3.67;1.67;;;;;;;;;;5143501;27;20086;-84
2021/12/25 01:56:35;;;;;;;3.00;1.40;;;;;;;;;;5127861;27;20089;-85
2021/12/25 01:59:01;;;;;;;3.17;1.90;;;;;;;;;;5120319;27;20046;-84
2021/12/25 02:01:27;;;;;;;4.30;1.52;;;;;;;;;;5119644;27;20405;-84
2021/12/25 02:03:53;;;;;;;4.03;1.58;;;;;;;;;;5102792;27;20039;-85
2021/12/25 02:06:19;;;;;;;4.00;1.70;;;;;;;;;;5103058;27;20079;-84
2021/12/25 02:08:45;;;;;;;3.70;1.55;;;;;;;;;;5103689;27;20039;-84
2021/12/25 02:11:12;;;;;;;2.25;1.42;;;;;;;;;;5103103;27;20046;-84
2021/12/25 02:13:40;;;;;;;2.60;1.60;;;;;;;;;;5102908;27;20039;-84
2021/12/25 02:16:12;;;;;;;2.55;1.50;;;;;;;;;;5120049;27;20099;-84
2021/12/25 02:21:17;;;;;;;3.97;1.77;;;;;;;;;;5120499;27;20039;-84
2021/12/25 02:23:43;;;;;;;2.80;1.40;;;;;;;;;;5121145;27;20083;-84
2021/12/25 02:26:09;;;;;;;3.65;1.20;;;;;;;;;;5121052;27;20046;-84
2021/12/25 02:28:36;;;;;;;2.45;1.52;;;;;;;;;;5120971;27;20043;-84
2021/12/25 02:31:07;;;;;;;2.65;1.48;;;;;;;;;;5121713;27;20039;-84
2021/12/25 02:33:33;;;;;;;4.95;1.60;;;;;;;;;;5104210;27;20095;-84
2021/12/25 02:35:59;;;;;;;3.22;1.60;;;;;;;;;;5121357;27;20453;-84
2021/12/25 02:38:26;;;;;;;2.97;1.30;;;;;;;;;;5105311;27;20088;-84
2021/12/25 02:40:52;;;;;;;3.60;1.58;;;;;;;;;;5121739;27;20396;-84
2021/12/25 02:43:18;;;;;;;1.15;0.93;;;;;;;;;;5105038;27;20197;-84
2021/12/25 02:45:45;;;;;;;2.47;2.22;;;;;;;;;;5121430;27;20047;-84
2021/12/25 02:48:11;;;;;;;1.73;1.00;;;;;;;;;;5104241;27;20038;-84
2021/12/25 02:50:39;;;;;;;3.55;1.30;;;;;;;;;;5106036;27;20114;-84
2021/12/25 02:53:07;;;;;;;2.38;1.30;;;;;;;;;;5122330;27;20046;-84
2021/12/25 02:55:34;;;;;;;3.33;1.20;;;;;;;;;;5122716;27;20043;-83
2021/12/25 02:58:00;;;;;;;1.45;0.90;;;;;;;;;;5121794;27;20125;-84
2021/12/25 03:00:30;;;;;;;2.30;1.23;;;;;;;;;;5121813;27;20446;-84
2021/12/25 03:02:57;;;;;;;3.30;1.40;;;;;;;;;;5121660;27;20069;-84
2021/12/25 03:05:23;;;;;;;4.15;1.77;;;;;;;;;;5121516;27;20493;-83
2021/12/25 03:07:49;;;;;;;4.35;1.27;;;;;;;;;;5121214;27;20059;-84
2021/12/25 03:10:16;;;;;;;2.00;1.20;;;;;;;;;;5104224;27;20047;-83
2021/12/25 03:15:17;;;;;;;2.33;1.00;;;;;;;;;;5121461;27;20043;-84
2021/12/25 03:17:45;;;;;;;1.60;1.10;;;;;;;;;;5103468;28;20039;-83
2021/12/25 03:20:11;;;;;;;1.20;1.05;;;;;;;;;;5122024;27;20047;-84
2021/12/25 03:22:38;;;;;;;2.33;1.00;;;;;;;;;;5122761;28;20039;-84
2021/12/25 03:25:09;;;;;;;1.35;1.00;;;;;;;;;;5122208;28;20035;-84
2021/12/25 03:27:42;;;;;;;4.25;1.20;;;;;;;;;;5124138;27;20054;-84
2021/12/25 03:30:09;;;;;;;2.70;1.00;;;;;;;;;;5124035;28;20035;-84
2021/12/25 03:32:35;;;;;;;3.55;1.20;;;;;;;;;;5123836;28;20043;-84
2021/12/25 03:35:01;;;;;;;1.95;1.20;;;;;;;;;;5107949;28;20066;-84
2021/12/25 03:37:27;;;;;;;1.20;0.75;;;;;;;;;;5103573;28;20051;-84
2021/12/25 03:39:53;;;;;;;2.22;0.90;;;;;;;;;;5124466;28;20045;-84
2021/12/25 03:42:19;;;;;;;5.28;1.10;;;;;;;;;;5107419;28;20401;-84
2021/12/25 03:44:46;;;;;;;4.05;1.15;;;;;;;;;;5123760;28;20050;-84
2021/12/25 03:47:24;;;;;;;1.05;0.95;;;;;;;;;;5124599;28;20394;-84
2021/12/25 03:58:09;;;;;;;1.20;0.98;;;;;;;;;;5122555;28;20086;-83
2021/12/25 04:00:36;;;;;;;2.28;1.20;;;;;;;;;;5122569;28;20474;-84
2021/12/25 04:03:07;;;;;;;2.88;0.80;;;;;;;;;;5123039;28;20118;-84
2021/12/25 04:05:35;;;;;;;1.25;0.93;;;;;;;;;;5122870;28;20039;-84
2021/12/25 04:08:10;;;;;;;1.73;0.80;;;;;;;;;;5105560;28;20060;-84
2021/12/25 04:10:41;;;;;;;2.03;0.93;;;;;;;;;;5123374;28;20054;-83
2021/12/25 04:13:10;;;;;;;3.97;1.08;;;;;;;;;;5122657;28;20062;-84
2021/12/25 04:15:36;;;;;;;2.95;1.23;;;;;;;;;;5105853;28;20054;-84
2021/12/25 04:18:02;;;;;;;1.73;1.00;;;;;;;;;;5121592;28;20078;-83
2021/12/25 04:20:29;;;;;;;1.60;0.80;;;;;;;;;;5105161;28;20035;-83
2021/12/25 04:23:22;;;;;;;2.17;1.02;;;;;;;;;;5122013;28;20064;-84
2021/12/25 04:25:44;;;;;;;0.95;0.85;;;;;;;;;;5120598;28;20068;-83
2021/12/25 04:28:21;;;;;;;2.65;0.95;;;;;;;;;;5104462;28;20047;-83
2021/12/25 04:31:08;;;;;;;1.77;0.93;;;;;;;;;;5121150;28;20039;-84
2021/12/25 05:04:01;;;;;;;1.58;1.05;;;;;;;;;;5144048;27;20058;-84
2021/12/25 05:06:27;;;;;;;1.70;0.90;;;;;;;;;;5119065;27;20111;-84
2021/12/25 05:08:54;;;;;;;3.08;1.20;;;;;;;;;;5123427;27;20122;-83
2021/12/25 05:11:20;;;;;;;1.20;0.80;;;;;;;;;;5122276;27;20038;-83
2021/12/25 05:13:49;;;;;;;1.67;0.88;;;;;;;;;;5121371;27;20035;-84
2021/12/25 05:16:15;;;;;;;1.08;0.80;;;;;;;;;;5102855;27;20042;-84
2021/12/25 05:18:41;;;;;;;3.28;1.23;;;;;;;;;;5119621;27;20098;-84
2021/12/25 05:21:07;;;;;;;1.13;1.00;;;;;;;;;;5101912;27;20544;-83
2021/12/25 05:23:34;;;;;;;2.08;1.52;;;;;;;;;;5118595;27;20039;-84
2021/12/25 05:26:00;;;;;;;1.25;0.90;;;;;;;;;;5117519;27;20099;-84
2021/12/25 05:28:27;;;;;;;2.22;1.13;;;;;;;;;;5122238;27;20081;-83
2021/12/25 05:30:54;;;;;;;2.78;1.10;;;;;;;;;;5143181;27;20031;-83
2021/12/25 05:33:21;;;;;;;1.02;0.93;;;;;;;;;;5121381;27;20433;-83
2021/12/25 05:35:47;;;;;;;0.70;0.70;;;;;;;;;;5125205;27;20039;-83
2021/12/25 05:38:14;;;;;;;1.85;0.90;;;;;;;;;;5108039;27;20051;-83
2021/12/25 05:40:44;;;;;;;1.23;0.98;;;;;;;;;;5107850;27;20058;-83
2021/12/25 05:43:10;;;;;;;3.00;1.00;;;;;;;;;;5106845;27;20219;-84
2021/12/25 05:45:36;;;;;;;1.50;1.20;;;;;;;;;;5107615;27;20035;-83
2021/12/25 05:48:03;;;;;;;2.58;1.10;;;;;;;;;;5106418;27;20043;-83
2021/12/25 05:50:29;;;;;;;1.70;1.08;;;;;;;;;;5108663;27;20038;-84
2021/12/25 05:52:56;;;;;;;1.13;0.93;;;;;;;;;;5106746;27;20429;-84
2021/12/25 05:55:23;;;;;;;1.70;1.00;;;;;;;;;;5107184;27;20039;-84
2021/12/25 05:57:48;;;;;;;1.58;0.93;;;;;;;;;;5106801;27;20331;-83
2021/12/25 06:00:15;;;;;;;1.58;1.02;;;;;;;;;;5119534;27;20111;-84
2021/12/25 06:02:41;;;;;;;1.63;1.10;;;;;;;;;;5102094;27;20043;-84
2021/12/25 06:05:07;;;;;;;4.68;1.00;;;;;;;;;;5119388;27;20073;-84
2021/12/25 06:07:33;;;;;;;2.15;0.98;;;;;;;;;;5119829;27;20035;-84
2021/12/25 06:10:00;;;;;;;2.10;0.90;;;;;;;;;;5102532;27;20084;-84
2021/12/25 06:12:27;;;;;;;3.53;1.10;;;;;;;;;;5104494;27;20050;-84
2021/12/25 06:14:54;;;;;;;1.23;0.93;;;;;;;;;;5121300;27;20540;-84
2021/12/25 06:17:20;;;;;;;0.63;0.57;;;;;;;;;;5104036;27;20358;-84
2021/12/25 06:19:46;;;;;;;0.80;0.80;;;;;;;;;;5104711;27;20041;-84
2021/12/25 06:22:12;;;;;;;1.05;0.80;;;;;;;;;;5122091;27;20031;-84
2021/12/25 06:24:41;;;;;;;1.23;0.90;;;;;;;;;;5103608;27;20057;-84
2021/12/25 06:27:07;;;;;;;1.20;0.70;;;;;;;;;;5121103;27;20489;-84
2021/12/25 06:29:33;;;;;;;1.23;0.80;;;;;;;;;;5093840;28;20039;-84
2021/12/25 06:31:59;;;;;;;1.70;1.00;;;;;;;;;;5118551;27;20073;-84
2021/12/25 06:34:25;;;;;;;1.40;1.10;;;;;;;;;;5087255;28;20069;-84
2021/12/25 06:36:51;;;;;;;2.15;0.75;;;;;;;;;;5102470;28;20047;-84
2021/12/25 06:39:17;;;;;;;2.08;0.93;;;;;;;;;;5098797;28;20044;-84
2021/12/25 06:41:44;;;;;;;1.67;0.80;;;;;;;;;;5101170;28;20043;-84
2021/12/25 06:44:10;;;;;;;0.95;0.90;;;;;;;;;;5083865;28;20039;-84
2021/12/25 06:46:36;;;;;;;0.93;0.65;;;;;;;;;;5084168;28;20039;-84
2021/12/25 06:49:02;;;;;;;0.80;0.73;;;;;;;;;;5100803;28;20471;-84
2021/12/25 06:51:28;;;;;;;2.00;0.68;;;;;;;;;;5084852;28;20043;-84
2021/12/25 06:53:54;;;;;;;1.27;0.80;;;;;;;;;;5102448;28;20043;-83
2021/12/25 06:56:21;;;;;;;1.38;0.73;;;;;;;;;;5102802;28;20047;-84
2021/12/25 06:58:47;;;;;;;0.50;0.50;;;;;;;;;;5102288;28;20047;-84
2021/12/25 07:01:13;;;;;;;1.98;0.70;;;;;;;;;;5083540;28;20654;-84
2021/12/25 07:03:39;;;;;;;2.60;0.85;;;;;;;;;;5101121;28;20555;-83
2021/12/25 07:06:05;;;;;;;0.90;0.60;;;;;;;;;;5101063;28;20070;-83
2021/12/25 07:08:31;;;;;;;1.45;0.52;;;;;;;;;;5084570;28;20097;-83
2021/12/25 07:10:57;;;;;;;2.30;0.70;;;;;;;;;;5100448;28;20043;-84
2021/12/25 07:13:23;;;;;;;1.88;0.68;;;;;;;;;;5100531;28;20047;-84
2021/12/25 07:15:49;;;;;;;2.35;1.05;;;;;;;;;;5083250;28;20165;-83
2021/12/25 07:18:15;;;;;;;0.50;0.50;;;;;;;;;;5099685;28;20063;-83
2021/12/25 07:20:42;;;;;;;0.70;0.70;;;;;;;;;;5099268;28;20048;-83
2021/12/25 07:23:08;;;;;;;1.58;0.70;;;;;;;;;;5099354;28;20039;-84
2021/12/25 07:25:34;;;;;;;1.75;0.52;;;;;;;;;;5100424;28;20450;-85
2021/12/25 07:28:00;;;;;;;1.27;0.80;;;;;;;;;;5100885;28;20119;-83
2021/12/25 07:30:26;;;;;;;0.80;0.60;;;;;;;;;;5101368;28;20050;-83
2021/12/25 07:32:52;;;;;;;3.35;0.70;;;;;;;;;;5101758;28;20039;-83
2021/12/25 07:35:18;;;;;;;2.38;0.73;;;;;;;;;;5101179;28;20453;-84
2021/12/25 07:37:44;;;;;;;1.70;0.60;;;;;;;;;;5101132;28;20039;-84
2021/12/25 07:40:10;;;;;;;1.48;0.68;;;;;;;;;;5100443;28;20558;-84
2021/12/25 07:42:36;;;;;;;3.13;0.80;;;;;;;;;;5119026;28;20123;-84
2021/12/25 07:45:05;;;;;;;1.73;0.63;;;;;;;;;;5104101;28;20494;-84
2021/12/25 07:47:33;;;;;;;0.50;0.50;;;;;;;;;;5121187;28;20043;-84
2021/12/25 07:49:59;;;;;;;0.98;0.65;;;;;;;;;;5121436;28;20121;-84
2021/12/25 07:52:26;;;;;;;4.20;0.73;;;;;;;;;;5120979;28;20051;-84
2021/12/25 07:54:52;;;;;;;1.23;0.70;;;;;;;;;;5120515;28;20038;-84
2021/12/25 07:57:18;;;;;;;1.50;0.60;;;;;;;;;;5120711;28;20089;-84
2021/12/25 07:59:44;;;;;;;1.15;0.50;;;;;;;;;;5119742;28;20409;-84
2021/12/25 08:02:10;;;;;;;1.27;0.80;;;;;;;;;;5118862;28;20043;-84
2021/12/25 08:04:36;;;;;;;1.85;0.70;;;;;;;;;;5119288;28;20043;-84
2021/12/25 08:07:02;;;;;;;4.40;0.70;;;;;;;;;;5102897;28;20112;-84
2021/12/25 08:09:29;;;;;;;0.73;0.68;;;;;;;;;;5121433;28;20035;-84
2021/12/25 08:11:56;;;;;;;0.85;0.70;;;;;;;;;;5120893;27;20043;-84
2021/12/25 08:14:25;;;;;;;1.42;0.60;;;;;;;;;;5122466;27;20059;-84
2021/12/25 08:16:51;;;;;;;3.20;0.70;;;;;;;;;;5122279;27;20043;-84
2021/12/25 08:19:17;;;;;;;0.88;0.70;;;;;;;;;;5124634;27;20069;-85
2021/12/25 08:21:43;;;;;;;0.52;0.52;;;;;;;;;;5121683;27;20031;-85
2021/12/25 08:24:09;;;;;;;1.40;0.80;;;;;;;;;;5103853;27;20035;-83
2021/12/25 08:26:35;;;;;;;1.15;0.60;;;;;;;;;;5121760;27;20049;-83
2021/12/25 08:29:01;;;;;;;2.30;0.70;;;;;;;;;;5094901;28;20452;-83
2021/12/25 08:31:27;;;;;;;3.47;0.80;;;;;;;;;;5098275;28;20055;-83
2021/12/25 08:33:53;;;;;;;3.20;0.90;;;;;;;;;;5097894;28;20043;-83
2021/12/25 08:36:19;;;;;;;1.92;0.63;;;;;;;;;;5098049;28;20525;-83
2021/12/25 08:38:45;;;;;;;1.63;0.73;;;;;;;;;;5105331;28;20053;-83
2021/12/25 08:41:11;;;;;;;5.90;0.98;;;;;;;;;;5123212;28;20035;-83
2021/12/25 08:43:46;;;;;;;2.78;1.02;;;;;;;;;;5099270;28;20050;-83
2021/12/25 08:49:28;;;;;;;2.75;0.80;;;;;;;;;;5062089;28;20034;-83
2021/12/25 08:59:05;;;;;;;;;;;;;;;;;;5010169;28;20056;-83
2021/12/25 09:01:50;;;;;;;1.08;0.70;;;;;;;;;;5082073;28;19973;-84
2021/12/25 09:07:48;;;;;;;1.35;0.70;;;;;;;;;;4981214;28;20026;-83
2021/12/25 09:10:16;;;;;;;2.00;1.23;;;;;;;;;;5101985;28;20050;-83
2021/12/25 09:12:45;;;;;;;2.42;1.13;;;;;;;;;;5089000;28;20587;-83
2021/12/25 09:15:12;;;;;;;3.47;1.13;;;;;;;;;;5124046;27;20031;-82
2021/12/25 09:17:39;;;;;;;3.53;0.90;;;;;;;;;;5139167;27;20035;-83
2021/12/25 09:20:06;;;;;;;2.97;1.08;;;;;;;;;;5104779;27;20046;-83
2021/12/25 09:22:33;;;;;;;1.70;0.80;;;;;;;;;;5120443;27;20618;-83
2021/12/25 09:24:59;;;;;;;1.55;0.90;;;;;;;;;;5102079;27;20039;-83
2021/12/25 09:27:25;;;;;;;2.70;0.73;;;;;;;;;;5123550;27;20513;-83
2021/12/25 09:29:52;;;;;;;1.33;0.90;;;;;;;;;;5087534;27;20046;-84
2021/12/25 09:32:24;;;;;;;1.05;0.93;;;;;;;;;;5107550;27;20035;-84
2021/12/25 09:34:50;;;;;;;1.10;1.00;;;;;;;;;;5085717;27;20039;-83
2021/12/25 09:37:16;;;;;;;0.80;0.80;;;;;;;;;;5123469;27;20046;-83
2021/12/25 09:39:42;;;;;;;1.52;0.90;;;;;;;;;;5100375;28;20039;-84
2021/12/25 09:42:12;;;;;;;1.45;0.88;;;;;;;;;;5104574;27;20483;-84
2021/12/25 09:44:44;;;;;;;2.15;0.70;;;;;;;;;;5118623;28;20501;-85
2021/12/25 09:47:10;;;;;;;1.67;1.23;;;;;;;;;;5090908;28;20111;-83
2021/12/25 09:49:36;;;;;;;1.65;1.10;;;;;;;;;;5085168;28;20126;-82
2021/12/25 09:52:02;;;;;;;2.65;0.93;;;;;;;;;;5101389;28;20128;-83
2021/12/25 09:54:31;;;;;;;2.17;0.68;;;;;;;;;;5100994;28;20049;-83
2021/12/25 09:56:58;;;;;;;1.05;0.73;;;;;;;;;;5120380;28;20051;-83
2021/12/25 09:59:27;;;;;;;3.92;0.77;;;;;;;;;;5120383;28;20040;-83
2021/12/25 10:01:54;;;;;;;1.35;0.70;;;;;;;;;;5101705;27;20044;-83
2021/12/25 10:04:52;;;;;;;1.27;0.68;;;;;;;;;;5084586;28;20035;-84
2021/12/25 10:07:20;;;;;;;3.92;0.88;;;;;;;;;;5117367;27;20039;-85
2021/12/25 10:09:58;;;;;;;1.10;0.60;;;;;;;;;;5120876;27;20027;-82
2021/12/25 10:12:29;;;;;;;1.42;0.77;;;;;;;;;;5115550;27;20038;-83
2021/12/25 10:14:55;;;;;;;2.15;0.90;;;;;;;;;;5115840;27;20057;-83
2021/12/25 10:17:26;;;;;;;0.95;0.70;;;;;;;;;;5087474;28;20039;-83
2021/12/25 10:20:01;;;;;;;1.67;0.65;;;;;;;;;;5083418;28;20075;-83
2021/12/25 10:22:27;;;;;;;1.27;0.90;;;;;;;;;;5090919;27;20092;-83
2021/12/25 10:25:05;;;;;;;2.55;0.90;;;;;;;;;;5100246;28;20035;-83
2021/12/25 10:27:31;;;;;;;1.02;0.70;;;;;;;;;;5117293;27;20047;-83
2021/12/25 10:30:01;;;;;;;1.75;0.73;;;;;;;;;;5104814;27;20403;-84
2021/12/25 10:32:30;;;;;;;3.35;0.93;;;;;;;;;;5110358;28;20043;-84
2021/12/25 10:34:59;;;;;;;2.22;0.80;;;;;;;;;;5102749;28;20082;-84
2021/12/25 10:37:25;;;;;;;4.32;1.25;;;;;;;;;;5097398;27;20035;-83
2021/12/25 10:39:52;;;;;;;3.90;1.10;;;;;;;;;;5098285;28;20040;-83
2021/12/25 10:42:34;;;;;;;1.40;0.85;;;;;;;;;;5099284;28;20027;-83
2021/12/25 10:45:07;;;;;;;1.15;0.73;;;;;;;;;;5093239;28;20032;-83
2021/12/25 10:51:29;;;;;;;3.45;1.30;;;;;;;;;;5119021;27;20436;-83
2021/12/25 10:54:04;;;;;;;1.77;0.70;;;;;;;;;;5100402;28;20035;-83
2021/12/25 10:56:35;;;;;;;3.45;0.77;;;;;;;;;;5081065;28;20039;-84
2021/12/25 10:59:06;;;;;;;2.20;0.80;;;;;;;;;;5081081;28;20517;-84
2021/12/25 11:02:03;;;;;;;1.67;0.80;;;;;;;;;;5098178;28;20044;-84
2021/12/25 11:04:51;;;;;;;1.67;0.60;;;;;;;;;;5089007;27;20398;-83
2021/12/25 11:07:28;;;;;;;1.08;0.77;;;;;;;;;;5113631;28;20092;-84
2021/12/25 11:10:12;;;;;;;3.45;1.02;;;;;;;;;;5091586;28;20040;-83
2021/12/25 11:12:46;;;;;;;1.38;0.70;;;;;;;;;;5106841;27;20525;-83
2021/12/25 11:15:20;;;;;;;2.30;0.80;;;;;;;;;;5099853;27;20035;-83
2021/12/25 11:17:51;;;;;;;2.33;0.90;;;;;;;;;;5097587;28;20046;-84
2021/12/25 11:20:18;;;;;;;1.75;0.70;;;;;;;;;;5085965;28;20046;-82
2021/12/25 11:22:52;;;;;;;1.30;0.57;;;;;;;;;;5081730;28;20051;-84
2021/12/25 11:25:19;;;;;;;2.85;0.80;;;;;;;;;;5113999;27;20039;-82
2021/12/25 11:27:45;;;;;;;1.60;0.70;;;;;;;;;;5098539;28;20039;-82
2021/12/25 11:30:12;;;;;;;1.40;0.70;;;;;;;;;;5083146;28;20406;-83
2021/12/25 11:32:38;;;;;;;1.98;0.70;;;;;;;;;;5096673;28;20115;-82
2021/12/25 11:35:05;;;;;;;1.67;0.85;;;;;;;;;;5094926;28;20028;-79
2021/12/25 11:37:32;;;;;;;2.40;0.88;;;;;;;;;;5098916;28;20125;-82
2021/12/25 11:40:01;;;;;;;2.70;0.90;;;;;;;;;;5097170;28;20065;-82
2021/12/25 11:42:44;;;;;;;2.78;0.93;;;;;;;;;;5093089;28;20031;-87
2021/12/25 11:45:43;;;;;;;;;;;;;;;;;;;;;
2021/12/25 11:48:18;;;;;;;1.95;0.70;;;;;;;;;;5102718;27;20047;-82
2021/12/25 11:50:51;;;;;;;1.67;0.73;;;;;;;;;;5133643;27;20071;-85
2021/12/25 11:53:31;;;;;;;1.33;0.70;;;;;;;;;;5099416;27;20035;-84
2021/12/25 11:58:42;;;;;;;2.13;0.60;;;;;;;;;;5110451;27;20035;-82
2021/12/25 12:01:16;;;;;;;1.30;0.65;;;;;;;;;;5119239;27;20039;-81
2021/12/25 12:03:46;;;;;;;4.32;0.90;;;;;;;;;;5110097;28;20088;-81
2021/12/25 12:06:13;;;;;;;1.10;0.70;;;;;;;;;;5101051;27;20035;-82
2021/12/25 12:09:00;;;;;;;1.27;0.80;;;;;;;;;;5083745;27;20082;-84
2021/12/25 12:11:29;;;;;;;0.85;0.85;;;;;;;;;;5091060;28;20483;-84
2021/12/25 12:14:15;;;;;;;1.63;0.70;;;;;;;;;;5100276;28;20039;-83
2021/12/25 12:16:48;;;;;;;1.15;0.70;;;;;;;;;;5110993;28;20031;-82
2021/12/25 12:19:37;;;;;;;1.55;0.60;;;;;;;;;;5118504;27;20037;-81
2021/12/25 12:22:25;;;;;;;3.58;0.90;;;;;;;;;;5145561;27;20090;-82
2021/12/25 12:27:32;;;;;;;2.42;0.90;;;;;;;;;;5106071;28;20047;-82
2021/12/25 12:29:59;;;;;;;2.33;1.00;;;;;;;;;;5113298;27;20427;-82
2021/12/25 12:32:26;;;;;;;4.40;0.93;;;;;;;;;;5109536;28;20406;-82
2021/12/25 12:34:53;;;;;;;2.95;1.00;;;;;;;;;;5108462;27;20598;-82
2021/12/25 12:37:19;;;;;;;2.10;0.90;;;;;;;;;;5094133;27;20077;-82
2021/12/25 12:39:55;;;;;;;1.98;0.70;;;;;;;;;;5104560;27;20035;-82
2021/12/25 12:43:02;;;;;;;1.92;0.80;;;;;;;;;;5104759;27;20047;-83
2021/12/25 12:45:30;;;;;;;1.52;1.10;;;;;;;;;;5125062;27;20033;-82
2021/12/25 12:48:14;;;;;;;1.75;0.80;;;;;;;;;;5133707;27;20044;-81
2021/12/25 12:50:41;;;;;;;3.05;0.82;;;;;;;;;;5094341;28;20039;-83
2021/12/25 12:53:09;;;;;;;1.48;1.15;;;;;;;;;;5111016;28;20031;-81
2021/12/25 12:55:37;;;;;;;2.63;1.00;;;;;;;;;;5105933;27;20068;-83
2021/12/25 12:58:20;;;;;;;5.30;1.17;;;;;;;;;;5107461;27;20492;-82
2021/12/25 13:00:50;;;;;;;1.25;0.93;;;;;;;;;;5111544;27;20513;-82
2021/12/25 13:03:16;;;;;;;2.08;0.88;;;;;;;;;;5091640;27;20039;-83
2021/12/25 13:05:44;;;;;;;2.53;1.00;;;;;;;;;;5107079;27;20097;-82
2021/12/25 13:08:21;;;;;;;2.33;1.30;;;;;;;;;;5108203;27;20047;-83
2021/12/25 13:11:09;;;;;;;1.48;1.08;;;;;;;;;;5111159;27;20077;-83
2021/12/25 13:13:50;;;;;;;2.90;1.38;;;;;;;;;;5102350;27;20043;-85
2021/12/25 13:16:23;;;;;;;3.50;1.02;;;;;;;;;;5093679;28;20130;-85
2021/12/25 13:18:51;;;;;;;1.88;1.15;;;;;;;;;;5093515;27;20069;-84
2021/12/25 13:21:18;;;;;;;4.25;1.13;;;;;;;;;;5120055;27;20043;-84
2021/12/25 13:24:18;;;;;;;2.60;1.20;;;;;;;;;;5109462;27;20043;-84
2021/12/25 13:27:42;;;;;;;2.80;0.90;;;;;;;;;;5135604;27;20042;-84
2021/12/25 13:30:53;;;;;;;1.20;0.90;;;;;;;;;;5106737;27;20043;-84
2021/12/25 13:34:27;;;;;;;1.33;1.00;;;;;;;;;;5098645;27;20619;-84
2021/12/25 13:37:35;;;;;;;2.28;0.90;;;;;;;;;;5125007;27;20038;-84
2021/12/25 13:44:17;;;;;;;1.75;1.00;;;;;;;;;;5064116;27;20506;-84
2021/12/25 13:57:20;;;;;;;1.88;0.90;;;;;;;;;;5127027;27;20030;-84
2021/12/25 14:00:12;;;;;;;1.88;0.73;;;;;;;;;;5109670;27;20136;-84
2021/12/25 14:02:39;;;;;;;1.58;0.95;;;;;;;;;;5109569;27;20506;-84
2021/12/25 14:05:06;;;;;;;2.22;1.20;;;;;;;;;;5090416;28;20035;-83
2021/12/25 14:07:32;;;;;;;2.78;1.10;;;;;;;;;;5098134;28;20040;-84
2021/12/25 14:10:18;;;;;;;3.35;0.98;;;;;;;;;;5098231;28;20414;-87
2021/12/25 14:12:46;;;;;;;3.10;1.00;;;;;;;;;;5098078;28;20104;-85
2021/12/25 14:15:14;;;;;;;1.98;0.90;;;;;;;;;;5081291;28;20035;-85
2021/12/25 14:17:41;;;;;;;2.78;0.98;;;;;;;;;;5095923;28;20032;-85
2021/12/25 14:20:09;;;;;;;1.00;0.90;;;;;;;;;;5078204;28;20149;-85
2021/12/25 14:22:36;;;;;;;4.03;1.20;;;;;;;;;;5095310;28;20046;-85
2021/12/25 14:25:03;;;;;;;3.60;1.70;;;;;;;;;;5079122;28;20047;-84
2021/12/25 14:27:33;;;;;;;5.22;2.15;;;;;;;;;;5080176;28;20101;-84
2021/12/25 14:33:13;;;;;;;1.15;0.80;;;;;;;;;;5098721;28;20526;-84
2021/12/25 14:35:42;;;;;;;3.25;0.80;;;;;;;;;;5100444;28;20410;-84
2021/12/25 14:38:08;;;;;;;2.53;1.20;;;;;;;;;;5080661;28;20035;-85
2021/12/25 14:40:39;;;;;;;1.58;1.00;;;;;;;;;;5098377;28;20039;-84
2021/12/25 14:43:09;;;;;;;3.85;0.90;;;;;;;;;;5081300;28;20122;-84
2021/12/25 14:45:40;;;;;;;1.20;1.10;;;;;;;;;;5079359;28;20048;-84
2021/12/25 14:48:06;;;;;;;1.25;0.93;;;;;;;;;;5098502;28;20044;-84
2021/12/25 14:50:33;;;;;;;2.30;1.15;;;;;;;;;;5097787;28;20039;-84
2021/12/25 14:53:02;;;;;;;3.05;1.25;;;;;;;;;;5098878;28;20043;-84
2021/12/25 14:55:33;;;;;;;2.45;1.00;;;;;;;;;;5082619;28;20086;-85
2021/12/25 14:58:09;;;;;;;4.40;1.40;;;;;;;;;;5081730;28;20043;-85
2021/12/25 15:00:36;;;;;;;3.47;1.35;;;;;;;;;;5081510;28;20071;-85
2021/12/25 15:03:13;;;;;;;2.33;1.55;;;;;;;;;;5098584;28;20040;-85
2021/12/25 15:05:40;;;;;;;2.20;1.17;;;;;;;;;;5081272;28;20048;-84
2021/12/25 15:08:26;;;;;;;1.95;1.20;;;;;;;;;;5080935;28;20590;-85
2021/12/25 15:10:53;;;;;;;2.38;1.55;;;;;;;;;;5098126;28;20051;-85
2021/12/25 15:13:23;;;;;;;2.55;1.20;;;;;;;;;;5098643;28;20048;-84
2021/12/25 15:15:51;;;;;;;2.55;1.58;;;;;;;;;;5081914;28;20043;-86
2021/12/25 15:18:39;;;;;;;2.20;1.50;;;;;;;;;;5083339;28;20433;-84
2021/12/25 15:21:25;;;;;;;1.77;1.05;;;;;;;;;;5082573;28;20105;-84
2021/12/25 15:24:07;;;;;;;1.85;1.13;;;;;;;;;;5082165;28;20043;-85
2021/12/25 15:27:05;;;;;;;2.67;1.20;;;;;;;;;;5082844;28;20502;-85
2021/12/25 15:29:36;;;;;;;4.20;1.63;;;;;;;;;;5080854;28;20247;-85
2021/12/25 15:32:18;;;;;;;3.72;1.80;;;;;;;;;;5084734;28;20039;-84
2021/12/25 15:35:02;;;;;;;3.08;2.10;;;;;;;;;;5100195;28;20091;-84
2021/12/25 15:40:56;;;;;;;1.55;1.45;;;;;;;;;;5117661;28;20046;-84
2021/12/25 15:43:28;;;;;;;2.92;1.40;;;;;;;;;;5083738;28;20091;-85
2021/12/25 15:46:04;;;;;;;3.92;1.70;;;;;;;;;;5090461;28;20043;-86
2021/12/25 15:48:32;;;;;;;1.95;1.75;;;;;;;;;;5065782;28;20031;-83
2021/12/25 15:50:58;;;;;;;2.25;1.80;;;;;;;;;;5081196;28;20153;-83
2021/12/25 15:53:33;;;;;;;2.45;1.75;;;;;;;;;;5097011;28;20498;-83
2021/12/25 15:56:30;;;;;;;3.63;1.35;;;;;;;;;;5088238;28;20032;-83
2021/12/25 16:02:39;;;;;;;3.53;1.30;;;;;;;;;;5037711;28;20115;-83
2021/12/25 16:05:30;;;;;;;4.03;2.10;;;;;;;;;;5018961;28;20046;-83
2021/12/25 16:12:01;;;;;;;4.38;1.70;;;;;;;;;;5035872;28;20072;-86
2021/12/25 16:14:53;;;;;;;3.80;1.40;;;;;;;;;;5113310;28;20414;-84
2021/12/25 16:17:30;;;;;;;1.30;1.20;;;;;;;;;;5079092;28;20039;-85
2021/12/25 16:20:15;;;;;;;2.67;1.60;;;;;;;;;;5011220;28;20062;-84
2021/12/25 16:23:08;;;;;;;2.95;1.52;;;;;;;;;;5028033;28;20048;-84
2021/12/25 16:29:20;;;;;;;2.95;1.80;;;;;;;;;;5034336;28;20069;-85
2021/12/25 16:32:19;;;;;;;4.40;1.85;;;;;;;;;;5039849;28;20185;-85
2021/12/25 16:55:07;;;;;;;3.45;1.98;;;;;;;;;;5084725;28;20079;-86
2021/12/25 16:57:43;;;;;;;2.00;1.60;;;;;;;;;;5049881;28;20474;-85
2021/12/25 17:00:27;;;;;;;3.97;1.33;;;;;;;;;;5076559;28;20082;-86
2021/12/25 17:06:37;;;;;;;2.95;1.98;;;;;;;;;;5122368;28;20085;-86
2021/12/25 17:09:05;;;;;;;4.43;2.35;;;;;;;;;;5084119;28;20047;-85
2021/12/25 17:11:49;;;;;;;3.22;2.50;;;;;;;;;;5077632;28;20044;-86
2021/12/25 17:14:26;;;;;;;3.00;1.90;;;;;;;;;;5083082;28;20499;-85
2021/12/25 17:17:01;;;;;;;1.80;1.60;;;;;;;;;;5083392;28;20054;-87
2021/12/25 17:19:28;;;;;;;3.40;1.90;;;;;;;;;;5082366;28;20130;-84
2021/12/25 17:21:54;;;;;;;2.53;1.85;;;;;;;;;;5121542;28;20049;-84
2021/12/25 17:24:20;;;;;;;3.00;2.05;;;;;;;;;;5086720;28;20081;-84
2021/12/25 17:26:47;;;;;;;4.20;1.73;;;;;;;;;;5103862;28;20051;-83
2021/12/25 17:29:13;;;;;;;2.05;1.80;;;;;;;;;;5085688;28;20044;-84
2021/12/25 17:31:39;;;;;;;4.57;1.65;;;;;;;;;;5102753;28;20040;-84
2021/12/25 17:34:06;;;;;;;4.05;1.50;;;;;;;;;;5085263;28;20044;-86
2021/12/25 17:36:56;;;;;;;3.35;2.00;;;;;;;;;;5083235;28;20043;-85